Terminal Aerodrome Forecast
Issued by NWS Caribou, ME

Home | Current Version | Previous Version | Text Only | Print | Product List | Glossary On
Versions: 1 2 3 4 5 6 7 8 9 10 11 12 13 14 15 16
000
FTUS41 KCAR 132300
TAFBGR
TAF
KBGR 132320Z 1400/1424 18011KT 6SM -SHRA OVC050
     FM140400 19008KT 5SM -SHRA BR OVC025
     FM140700 19007KT 4SM BR BKN008
     FM140900 20007KT 3SM BR BKN003
     FM141200 21006KT P6SM BKN020
     FM141500 22007KT P6SM BKN040=

USA.gov is the U.S. government's official web portal to all federal, state and local government web resources and services.